Time;durP1;ratioP1;P1;durP2;ratioP2;P2;SDS_P1;SDS_P2;PMS_P1;PMS_P2;Temp;Humidity;BMP_temperature;BMP_pressure;BME280_temperature;BME280_humidity;BME280_pressure;Samples;Min_cycle;Max_cycle;Signal;HPM_P1;HPM_P2
2023/02/24 00:04:14;;;;;;;;;;;17.70;52.30;;;;;;10083097;28;984;-75
2023/02/24 00:09:09;;;;;;;;;;;17.70;52.30;;;;;;10082332;28;1013;-76
2023/02/24 00:14:05;;;;;;;;;;;17.70;52.30;;;;;;10082341;28;834;-78
2023/02/24 00:19:00;;;;;;;;;;;17.70;52.20;;;;;;10082000;28;1906;-78
2023/02/24 00:23:58;;;;;;;;;;;17.70;52.20;;;;;;10081633;28;945;-78
2023/02/24 00:28:53;;;;;;;;;;;17.70;52.20;;;;;;10081548;28;775;-78
2023/02/24 00:33:48;;;;;;;;;;;17.70;52.20;;;;;;10081642;28;881;-78
2023/02/24 00:38:45;;;;;;;;;;;17.70;52.10;;;;;;10081292;28;1899;-78
2023/02/24 00:43:45;;;;;;;;;;;17.70;52.10;;;;;;10081261;28;1319;-77
2023/02/24 00:48:41;;;;;;;;;;;17.70;52.10;;;;;;10080549;28;885;-78
2023/02/24 00:53:37;;;;;;;;;;;17.70;52.20;;;;;;10082034;28;820;-78
2023/02/24 00:58:33;;;;;;;;;;;17.70;52.10;;;;;;10080794;28;1906;-78
2023/02/24 01:03:28;;;;;;;;;;;17.70;52.10;;;;;;10080680;28;898;-78
2023/02/24 01:08:23;;;;;;;;;;;17.70;52.10;;;;;;10080022;28;881;-78
2023/02/24 01:13:19;;;;;;;;;;;17.70;52.10;;;;;;10080446;28;868;-78
2023/02/24 01:18:14;;;;;;;;;;;17.70;52.20;;;;;;10080449;28;1964;-78
2023/02/24 01:23:10;;;;;;;;;;;17.60;52.10;;;;;;10080759;28;809;-78
2023/02/24 01:28:05;;;;;;;;;;;17.70;52.10;;;;;;10079986;28;867;-78
2023/02/24 01:33:00;;;;;;;;;;;17.70;52.10;;;;;;10080447;28;802;-78
2023/02/24 01:37:57;;;;;;;;;;;17.70;52.00;;;;;;10079753;28;1898;-78
2023/02/24 01:42:53;;;;;;;;;;;17.70;52.10;;;;;;10080101;28;1132;-78
2023/02/24 01:47:48;;;;;;;;;;;17.60;52.00;;;;;;10079609;28;933;-78
2023/02/24 01:52:43;;;;;;;;;;;17.70;52.00;;;;;;10080040;28;860;-78
2023/02/24 01:57:39;;;;;;;;;;;17.70;52.00;;;;;;10079891;28;1883;-78
2023/02/24 02:02:34;;;;;;;;;;;17.70;51.90;;;;;;10079440;28;860;-78
2023/02/24 02:07:30;;;;;;;;;;;17.70;51.90;;;;;;10079646;28;806;-78
2023/02/24 02:12:25;;;;;;;;;;;17.60;51.90;;;;;;10079578;28;882;-78
2023/02/24 02:17:21;;;;;;;;;;;17.70;51.90;;;;;;10080702;28;1964;-78
2023/02/24 02:22:16;;;;;;;;;;;17.70;51.90;;;;;;10086214;28;833;-78
2023/02/24 02:27:11;;;;;;;;;;;17.60;51.80;;;;;;10086330;28;834;-78
2023/02/24 02:32:07;;;;;;;;;;;17.60;51.80;;;;;;10085297;28;976;-78
2023/02/24 02:37:04;;;;;;;;;;;17.60;51.80;;;;;;10085701;28;1973;-78
2023/02/24 02:42:00;;;;;;;;;;;17.60;51.70;;;;;;10084578;28;1400;-78
2023/02/24 02:46:56;;;;;;;;;;;17.60;51.70;;;;;;10084871;28;801;-78
2023/02/24 02:51:51;;;;;;;;;;;17.60;51.80;;;;;;10085479;28;863;-78
2023/02/24 02:56:47;;;;;;;;;;;17.60;51.70;;;;;;10085116;28;1910;-78
2023/02/24 03:01:42;;;;;;;;;;;17.60;51.70;;;;;;10084421;28;893;-78
2023/02/24 03:06:38;;;;;;;;;;;17.70;51.70;;;;;;10085106;28;806;-78
2023/02/24 03:11:33;;;;;;;;;;;17.60;51.70;;;;;;10084598;28;867;-78
2023/02/24 03:16:28;;;;;;;;;;;17.60;51.70;;;;;;10083950;28;1906;-78
2023/02/24 03:21:24;;;;;;;;;;;17.60;51.70;;;;;;10083844;28;753;-78
2023/02/24 03:26:22;;;;;;;;;;;17.60;51.60;;;;;;10084237;28;828;-78
2023/02/24 03:31:17;;;;;;;;;;;17.70;51.60;;;;;;10083275;28;826;-78
2023/02/24 03:36:13;;;;;;;;;;;17.60;51.60;;;;;;10083384;28;1980;-78
2023/02/24 03:41:12;;;;;;;;;;;17.60;51.60;;;;;;10083129;28;1109;-78
2023/02/24 03:46:07;;;;;;;;;;;17.60;51.60;;;;;;10083393;28;790;-78
2023/02/24 03:51:03;;;;;;;;;;;17.60;51.50;;;;;;10084627;28;922;-78
2023/02/24 03:55:59;;;;;;;;;;;17.60;51.60;;;;;;10082721;28;1980;-78
2023/02/24 04:00:54;;;;;;;;;;;17.60;51.60;;;;;;10083217;28;818;-78
2023/02/24 04:05:50;;;;;;;;;;;17.60;51.60;;;;;;10083243;28;838;-78
2023/02/24 04:10:51;;;;;;;;;;;17.60;51.50;;;;;;10081704;28;902;-78
2023/02/24 04:15:46;;;;;;;;;;;17.60;51.50;;;;;;10082771;28;1907;-78
2023/02/24 04:20:42;;;;;;;;;;;17.60;51.50;;;;;;10082001;28;870;-78
2023/02/24 04:25:38;;;;;;;;;;;17.60;51.60;;;;;;10082174;28;823;-78
2023/02/24 04:30:33;;;;;;;;;;;17.60;51.50;;;;;;10081686;28;904;-78
2023/02/24 04:35:28;;;;;;;;;;;17.60;51.40;;;;;;10081622;28;1958;-79
2023/02/24 04:40:24;;;;;;;;;;;17.60;51.40;;;;;;10080287;28;964;-78
2023/02/24 04:45:20;;;;;;;;;;;17.60;51.50;;;;;;10080649;28;1300;-78
2023/02/24 04:50:21;;;;;;;;;;;17.60;51.50;;;;;;10081682;28;850;-78
2023/02/24 04:55:17;;;;;;;;;;;17.60;51.40;;;;;;10081344;28;1914;-78
2023/02/24 05:00:19;;;;;;;;;;;17.60;51.50;;;;;;10080834;28;941;-78
2023/02/24 05:05:15;;;;;;;;;;;17.60;51.50;;;;;;10080672;28;965;-78
2023/02/24 05:10:10;;;;;;;;;;;17.60;51.40;;;;;;10081152;28;772;-78
2023/02/24 05:15:05;;;;;;;;;;;17.60;51.40;;;;;;10080343;28;1903;-78
2023/02/24 05:25:14;;;;;;;;;;;17.60;51.30;;;;;;10079870;29;632;-78
2023/02/24 05:30:10;;;;;;;;;;;17.60;51.20;;;;;;10080875;28;1047;-78
2023/02/24 05:35:05;;;;;;;;;;;17.70;51.30;;;;;;10079853;28;1907;-79
2023/02/24 05:40:02;;;;;;;;;;;17.70;51.20;;;;;;10080392;28;913;-79
2023/02/24 05:44:57;;;;;;;;;;;17.70;51.10;;;;;;10079608;28;1268;-77
2023/02/24 05:49:55;;;;;;;;;;;17.70;51.20;;;;;;10080167;28;877;-80
2023/02/24 05:54:51;;;;;;;;;;;17.70;51.10;;;;;;10086906;28;1907;-89
2023/02/24 05:59:47;;;;;;;;;;;17.70;51.10;;;;;;10086264;28;921;-89
2023/02/24 06:04:52;;;;;;;;;;;17.70;51.10;;;;;;10086204;28;830;-89
2023/02/24 06:09:52;;;;;;;;;;;17.70;51.00;;;;;;10086577;28;934;-90
2023/02/24 06:14:47;;;;;;;;;;;17.70;51.10;;;;;;10085862;28;862;-90
2023/02/24 06:19:43;;;;;;;;;;;17.70;51.00;;;;;;10085858;28;1899;-89
2023/02/24 06:24:48;;;;;;;;;;;17.70;50.90;;;;;;10084775;28;811;-75
2023/02/24 06:29:43;;;;;;;;;;;17.70;50.90;;;;;;10085475;28;1116;-90
2023/02/24 06:34:39;;;;;;;;;;;17.70;50.90;;;;;;10086106;28;856;-85
2023/02/24 06:39:34;;;;;;;;;;;17.70;50.90;;;;;;10079172;28;1898;-80
2023/02/24 06:44:30;;;;;;;;;;;17.70;50.90;;;;;;10085020;28;1122;-86
2023/02/24 06:49:25;;;;;;;;;;;17.70;50.80;;;;;;10084850;28;978;-71
2023/02/24 06:54:27;;;;;;;;;;;17.80;50.90;;;;;;10085359;28;801;-70
2023/02/24 06:59:27;;;;;;;;;;;18.00;51.30;;;;;;10084817;28;1984;-70
2023/02/24 07:04:23;;;;;;;;;;;18.00;51.40;;;;;;10084053;28;846;-70
2023/02/24 07:09:19;;;;;;;;;;;18.00;51.40;;;;;;10084765;28;856;-70
2023/02/24 07:14:14;;;;;;;;;;;18.00;51.50;;;;;;10084725;28;897;-70
2023/02/24 07:19:12;;;;;;;;;;;18.00;51.40;;;;;;10083861;28;1954;-71
2023/02/24 07:24:08;;;;;;;;;;;18.00;51.10;;;;;;10084356;28;946;-70
2023/02/24 07:29:05;;;;;;;;;;;17.80;50.90;;;;;;10084219;28;842;-70
2023/02/24 07:34:00;;;;;;;;;;;17.90;51.10;;;;;;10082654;28;1159;-70
2023/02/24 07:39:00;;;;;;;;;;;18.00;51.30;;;;;;10083812;28;1902;-71
2023/02/24 07:43:57;;;;;;;;;;;18.00;51.50;;;;;;10083532;28;1101;-70
2023/02/24 07:48:53;;;;;;;;;;;18.10;51.30;;;;;;10083019;28;966;-71
2023/02/24 07:53:49;;;;;;;;;;;18.00;51.40;;;;;;10082823;28;863;-70
2023/02/24 07:58:44;;;;;;;;;;;18.00;52.40;;;;;;10082570;28;1910;-74
2023/02/24 08:03:40;;;;;;;;;;;18.10;52.20;;;;;;10082801;28;856;-70
2023/02/24 08:08:56;;;;;;;;;;;18.00;52.30;;;;;;10082444;28;774;-70
2023/02/24 08:13:51;;;;;;;;;;;18.10;52.10;;;;;;10079907;28;1601;-70
2023/02/24 08:18:47;;;;;;;;;;;18.10;52.20;;;;;;10082004;28;1907;-71
2023/02/24 08:23:43;;;;;;;;;;;18.10;52.70;;;;;;10081925;28;862;-71
2023/02/24 08:28:38;;;;;;;;;;;18.00;52.80;;;;;;10082711;28;940;-73
2023/02/24 08:33:36;;;;;;;;;;;18.10;52.90;;;;;;10082269;28;858;-71
2023/02/24 08:38:38;;;;;;;;;;;18.10;52.80;;;;;;10081734;28;1902;-73
2023/02/24 08:43:34;;;;;;;;;;;18.10;53.00;;;;;;10080596;28;1411;-75
2023/02/24 08:48:36;;;;;;;;;;;18.10;52.30;;;;;;10080989;28;902;-72
2023/02/24 08:53:31;;;;;;;;;;;18.00;52.20;;;;;;10081821;28;861;-71
2023/02/24 08:58:26;;;;;;;;;;;18.10;52.50;;;;;;10081470;28;1918;-71
2023/02/24 09:03:28;;;;;;;;;;;18.10;52.50;;;;;;10081351;28;826;-72
2023/02/24 09:08:23;;;;;;;;;;;18.20;52.90;;;;;;10080640;28;925;-72
2023/02/24 09:13:19;;;;;;;;;;;18.00;53.00;;;;;;10081474;28;976;-73
2023/02/24 09:18:14;;;;;;;;;;;17.80;53.00;;;;;;10080598;28;1914;-71
2023/02/24 09:23:09;;;;;;;;;;;17.70;52.50;;;;;;10080869;28;852;-71
2023/02/24 09:28:08;;;;;;;;;;;17.70;52.80;;;;;;10079668;28;917;-72
2023/02/24 09:33:03;;;;;;;;;;;17.70;52.60;;;;;;10079981;28;910;-72
2023/02/24 09:37:59;;;;;;;;;;;17.70;52.30;;;;;;10079866;28;1967;-72
2023/02/24 09:42:57;;;;;;;;;;;17.60;52.30;;;;;;10079870;28;1110;-72
2023/02/24 09:47:55;;;;;;;;;;;17.60;52.20;;;;;;10079560;28;932;-72
2023/02/24 09:52:50;;;;;;;;;;;17.60;51.90;;;;;;10080088;28;894;-72
2023/02/24 10:03:02;;;;;;;;;;;17.70;51.20;;;;;;10078784;29;608;-73
2023/02/24 10:07:59;;;;;;;;;;;17.70;51.40;;;;;;10079082;28;1004;-74
2023/02/24 10:12:57;;;;;;;;;;;17.70;51.30;;;;;;10079012;28;897;-74
2023/02/24 10:17:54;;;;;;;;;;;17.60;51.40;;;;;;10078762;28;1906;-74
2023/02/24 10:22:49;;;;;;;;;;;17.60;51.30;;;;;;10079493;28;865;-74
2023/02/24 10:27:46;;;;;;;;;;;17.60;51.30;;;;;;10078661;28;814;-75
2023/02/24 10:32:47;;;;;;;;;;;17.60;51.20;;;;;;10078456;28;898;-74
2023/02/24 10:37:42;;;;;;;;;;;17.60;51.10;;;;;;10079387;28;1907;-75
2023/02/24 10:42:43;;;;;;;;;;;17.60;50.80;;;;;;10084184;28;1344;-74
2023/02/24 10:47:43;;;;;;;;;;;17.60;50.30;;;;;;10085114;28;822;-73
2023/02/24 10:58:04;;;;;;;;;;;17.60;50.60;;;;;;10084644;28;1907;-74
2023/02/24 11:03:07;;;;;;;;;;;17.60;50.00;;;;;;10084552;28;858;-74
2023/02/24 11:08:06;;;;;;;;;;;17.50;50.10;;;;;;10084434;28;822;-75
2023/02/24 11:18:15;;;;;;;;;;;17.50;49.70;;;;;;10083633;29;1915;-74
2023/02/24 11:23:11;;;;;;;;;;;17.50;49.70;;;;;;10083874;28;854;-74
2023/02/24 11:28:06;;;;;;;;;;;17.50;49.90;;;;;;10083241;28;869;-74
2023/02/24 11:33:01;;;;;;;;;;;17.50;49.80;;;;;;10083612;28;971;-74
2023/02/24 11:37:57;;;;;;;;;;;17.50;49.60;;;;;;10084254;28;1973;-74
2023/02/24 11:42:52;;;;;;;;;;;17.50;49.50;;;;;;10083226;28;1304;-74
2023/02/24 11:47:47;;;;;;;;;;;17.50;49.30;;;;;;10083015;28;810;-74
2023/02/24 11:52:45;;;;;;;;;;;17.50;49.60;;;;;;10083372;28;925;-74
2023/02/24 11:57:41;;;;;;;;;;;17.50;49.10;;;;;;10082768;28;1954;-74
2023/02/24 12:02:37;;;;;;;;;;;17.50;49.50;;;;;;10083261;28;928;-74
2023/02/24 12:07:33;;;;;;;;;;;17.50;49.50;;;;;;10083099;28;842;-75
2023/02/24 12:12:28;;;;;;;;;;;17.50;49.50;;;;;;10081995;28;842;-74
2023/02/24 12:17:23;;;;;;;;;;;17.50;49.40;;;;;;10082769;28;1968;-70
2023/02/24 12:22:19;;;;;;;;;;;17.50;49.00;;;;;;10082101;28;907;-75
2023/02/24 12:27:14;;;;;;;;;;;17.60;49.40;;;;;;10081943;28;802;-77
2023/02/24 12:32:10;;;;;;;;;;;17.50;49.10;;;;;;10081936;28;877;-77
2023/02/24 12:37:06;;;;;;;;;;;17.50;49.10;;;;;;10081633;28;1935;-77
2023/02/24 12:42:01;;;;;;;;;;;17.50;48.80;;;;;;10081635;28;1231;-76
2023/02/24 12:46:58;;;;;;;;;;;17.50;49.10;;;;;;10081950;28;928;-78
2023/02/24 12:51:54;;;;;;;;;;;17.50;49.00;;;;;;10081288;28;873;-77
2023/02/24 12:56:49;;;;;;;;;;;17.60;49.00;;;;;;10081603;28;1972;-74
2023/02/24 13:01:44;;;;;;;;;;;17.60;49.20;;;;;;10080122;28;809;-74
2023/02/24 13:06:40;;;;;;;;;;;17.60;49.00;;;;;;10080812;28;874;-74
2023/02/24 13:11:35;;;;;;;;;;;17.50;48.80;;;;;;10080183;28;917;-75
2023/02/24 13:16:30;;;;;;;;;;;17.60;49.30;;;;;;10080482;28;1970;-74
2023/02/24 13:21:26;;;;;;;;;;;17.50;48.90;;;;;;10080368;28;833;-74
2023/02/24 13:26:21;;;;;;;;;;;17.50;48.90;;;;;;10080202;28;855;-74
2023/02/24 13:31:17;;;;;;;;;;;17.50;48.90;;;;;;10080718;28;814;-74
2023/02/24 13:36:12;;;;;;;;;;;17.40;49.00;;;;;;10080427;28;1960;-79
2023/02/24 13:41:07;;;;;;;;;;;17.40;48.90;;;;;;10079923;28;1260;-78
2023/02/24 13:46:03;;;;;;;;;;;17.40;48.80;;;;;;10079730;28;758;-79
2023/02/24 13:50:58;;;;;;;;;;;17.40;48.90;;;;;;10079004;28;1057;-73
2023/02/24 13:55:57;;;;;;;;;;;17.40;49.20;;;;;;10079423;28;1910;-74
2023/02/24 14:00:52;;;;;;;;;;;17.60;50.10;;;;;;10079289;28;917;-74
2023/02/24 14:05:48;;;;;;;;;;;17.70;50.30;;;;;;10079491;28;955;-75
2023/02/24 14:10:43;;;;;;;;;;;17.70;50.70;;;;;;10078702;28;1635;-74
2023/02/24 14:15:38;;;;;;;;;;;17.70;50.90;;;;;;10085297;28;1955;-74
2023/02/24 14:20:34;;;;;;;;;;;17.80;50.80;;;;;;10086086;28;962;-75
2023/02/24 14:25:29;;;;;;;;;;;17.80;51.00;;;;;;10085741;28;788;-71
2023/02/24 14:30:25;;;;;;;;;;;17.80;51.00;;;;;;10085667;28;866;-72
2023/02/24 14:35:20;;;;;;;;;;;17.80;51.00;;;;;;10086043;28;1960;-71
2023/02/24 14:40:16;;;;;;;;;;;17.80;51.20;;;;;;10085115;28;766;-73
2023/02/24 14:45:11;;;;;;;;;;;17.80;51.00;;;;;;10085380;28;1281;-72
2023/02/24 14:50:06;;;;;;;;;;;17.80;51.00;;;;;;10084012;28;873;-72
2023/02/24 14:55:02;;;;;;;;;;;17.70;50.70;;;;;;10085028;28;814;-72
2023/02/24 14:59:57;;;;;;;;;;;17.70;51.00;;;;;;10084802;28;1953;-72
2023/02/24 15:04:52;;;;;;;;;;;17.70;51.00;;;;;;10084217;28;889;-72
2023/02/24 15:09:50;;;;;;;;;;;17.70;51.00;;;;;;10083851;28;1081;-72
2023/02/24 15:14:45;;;;;;;;;;;17.70;50.70;;;;;;10083829;28;949;-72
2023/02/24 15:19:44;;;;;;;;;;;17.80;50.70;;;;;;10084256;28;1985;-73
2023/02/24 15:24:39;;;;;;;;;;;17.80;50.50;;;;;;10082886;28;863;-73
2023/02/24 15:29:35;;;;;;;;;;;17.70;50.50;;;;;;10083461;28;860;-73
2023/02/24 15:34:30;;;;;;;;;;;17.80;50.70;;;;;;10083998;28;806;-73
2023/02/24 15:39:26;;;;;;;;;;;17.80;50.70;;;;;;10083186;28;1974;-73
2023/02/24 15:44:21;;;;;;;;;;;17.90;51.10;;;;;;10083372;28;1368;-73
2023/02/24 15:49:16;;;;;;;;;;;17.90;51.40;;;;;;10084072;28;830;-73
2023/02/24 15:54:12;;;;;;;;;;;17.80;51.10;;;;;;10082132;28;999;-72
2023/02/24 15:59:07;;;;;;;;;;;17.80;51.20;;;;;;10082981;28;1989;-73
2023/02/24 16:04:03;;;;;;;;;;;17.80;51.10;;;;;;10083109;28;898;-74
2023/02/24 16:08:59;;;;;;;;;;;17.80;50.70;;;;;;10083626;28;892;-79
2023/02/24 16:13:54;;;;;;;;;;;17.90;51.00;;;;;;10082319;28;870;-79
2023/02/24 16:18:50;;;;;;;;;;;17.70;51.20;;;;;;10082940;28;1907;-79
2023/02/24 16:23:45;;;;;;;;;;;17.60;51.10;;;;;;10083084;28;866;-79
2023/02/24 16:28:41;;;;;;;;;;;17.50;51.30;;;;;;10081860;28;887;-78
2023/02/24 16:33:36;;;;;;;;;;;17.50;51.30;;;;;;10081775;28;901;-77
2023/02/24 16:38:32;;;;;;;;;;;17.50;51.10;;;;;;10080416;28;1973;-75
2023/02/24 16:43:28;;;;;;;;;;;17.60;51.40;;;;;;10081303;28;1245;-75
2023/02/24 16:48:24;;;;;;;;;;;17.80;51.40;;;;;;10081327;28;973;-75
2023/02/24 16:53:19;;;;;;;;;;;17.90;51.60;;;;;;10081448;28;814;-73
2023/02/24 16:58:14;;;;;;;;;;;17.90;51.70;;;;;;10081686;28;1918;-76
2023/02/24 17:03:10;;;;;;;;;;;17.90;52.00;;;;;;10080905;28;843;-76
2023/02/24 17:08:05;;;;;;;;;;;17.90;52.10;;;;;;10080953;28;857;-77
2023/02/24 17:13:01;;;;;;;;;;;17.90;52.10;;;;;;10080662;28;785;-80
2023/02/24 17:17:57;;;;;;;;;;;17.80;52.30;;;;;;10080444;28;1907;-80
2023/02/24 17:22:52;;;;;;;;;;;17.60;52.40;;;;;;10080372;28;996;-81
2023/02/24 17:27:47;;;;;;;;;;;17.50;52.50;;;;;;10080244;28;865;-81
2023/02/24 17:32:43;;;;;;;;;;;17.40;52.50;;;;;;10080637;28;826;-80
2023/02/24 17:37:38;;;;;;;;;;;17.40;52.50;;;;;;10079899;28;1898;-81
2023/02/24 17:42:34;;;;;;;;;;;17.40;52.40;;;;;;10079558;28;1271;-81
2023/02/24 17:47:29;;;;;;;;;;;17.40;52.40;;;;;;10079881;28;726;-80
2023/02/24 17:52:24;;;;;;;;;;;17.40;52.30;;;;;;10079613;28;883;-80
2023/02/24 17:57:20;;;;;;;;;;;17.30;52.20;;;;;;10079436;28;1971;-80
2023/02/24 18:02:15;;;;;;;;;;;17.40;52.70;;;;;;10080046;28;921;-80
2023/02/24 18:07:10;;;;;;;;;;;17.40;52.10;;;;;;10079275;28;779;-81
2023/02/24 18:12:06;;;;;;;;;;;17.40;52.10;;;;;;10078798;28;942;-81
2023/02/24 18:17:01;;;;;;;;;;;17.40;51.90;;;;;;10078415;28;1911;-81
2023/02/24 18:21:56;;;;;;;;;;;17.40;51.70;;;;;;10078861;28;1041;-81
2023/02/24 18:26:52;;;;;;;;;;;17.40;51.80;;;;;;10078251;28;995;-81
2023/02/24 18:31:47;;;;;;;;;;;17.40;51.40;;;;;;10078756;28;871;-81
2023/02/24 18:36:43;;;;;;;;;;;17.40;51.50;;;;;;10078727;28;1962;-81
2023/02/24 18:41:38;;;;;;;;;;;17.40;51.40;;;;;;10078481;28;1137;-80
2023/02/24 18:46:33;;;;;;;;;;;17.40;51.30;;;;;;10078325;28;996;-80
2023/02/24 18:51:29;;;;;;;;;;;17.40;51.40;;;;;;10079481;28;867;-81
2023/02/24 18:56:25;;;;;;;;;;;17.40;51.40;;;;;;10078009;28;1914;-81
2023/02/24 19:01:20;;;;;;;;;;;17.40;50.80;;;;;;10083112;28;872;-81
2023/02/24 19:06:17;;;;;;;;;;;17.40;51.20;;;;;;10085086;28;960;-81
2023/02/24 19:11:13;;;;;;;;;;;17.40;51.20;;;;;;10084369;28;890;-81
2023/02/24 19:16:09;;;;;;;;;;;17.40;51.10;;;;;;10084095;28;1957;-80
2023/02/24 19:21:04;;;;;;;;;;;17.40;51.30;;;;;;10084103;28;797;-81
2023/02/24 19:25:59;;;;;;;;;;;17.40;51.00;;;;;;10084423;28;902;-77
2023/02/24 19:30:55;;;;;;;;;;;17.40;51.20;;;;;;10083747;28;948;-76
2023/02/24 19:35:52;;;;;;;;;;;17.60;51.40;;;;;;10084124;29;1910;-72
2023/02/24 19:40:47;;;;;;;;;;;17.80;51.80;;;;;;10082836;28;1173;-74
2023/02/24 19:45:42;;;;;;;;;;;17.70;51.60;;;;;;10083395;28;825;-75
2023/02/24 19:50:38;;;;;;;;;;;17.80;51.60;;;;;;10083159;28;886;-75
2023/02/24 19:55:33;;;;;;;;;;;17.90;51.70;;;;;;10082857;28;1914;-74
2023/02/24 20:00:29;;;;;;;;;;;17.90;51.50;;;;;;10082885;28;780;-75
2023/02/24 20:05:24;;;;;;;;;;;17.90;51.40;;;;;;10082758;28;774;-75
2023/02/24 20:10:19;;;;;;;;;;;17.90;51.20;;;;;;10082291;28;914;-75
2023/02/24 20:15:15;;;;;;;;;;;17.90;51.40;;;;;;10083068;28;810;-75
2023/02/24 20:20:11;;;;;;;;;;;18.00;51.20;;;;;;10082252;28;1899;-74
2023/02/24 20:25:07;;;;;;;;;;;18.00;51.10;;;;;;10082281;28;848;-75
2023/02/24 20:30:02;;;;;;;;;;;18.00;51.40;;;;;;10096864;28;693;-75
2023/02/24 20:34:57;;;;;;;;;;;18.00;51.50;;;;;;10081850;28;886;-75
2023/02/24 20:39:53;;;;;;;;;;;18.00;51.20;;;;;;10082201;28;1898;-75
2023/02/24 20:44:48;;;;;;;;;;;17.90;51.40;;;;;;10082142;28;1110;-74
2023/02/24 20:49:44;;;;;;;;;;;18.00;51.50;;;;;;10081861;28;860;-74
2023/02/24 20:54:39;;;;;;;;;;;17.80;51.40;;;;;;10081222;28;803;-75
2023/02/24 20:59:38;;;;;;;;;;;17.90;51.50;;;;;;10081634;28;1914;-75
2023/02/24 21:04:34;;;;;;;;;;;17.90;51.60;;;;;;10080896;28;985;-75
2023/02/24 21:09:35;;;;;;;;;;;17.90;51.60;;;;;;10081213;28;954;-75
2023/02/24 21:14:31;;;;;;;;;;;17.90;51.60;;;;;;10080731;28;771;-74
2023/02/24 21:19:26;;;;;;;;;;;17.80;51.60;;;;;;10080603;28;1964;-75
2023/02/24 21:24:22;;;;;;;;;;;17.80;51.70;;;;;;10079976;28;802;-75
2023/02/24 21:29:18;;;;;;;;;;;17.80;51.60;;;;;;10080167;28;898;-75
2023/02/24 21:34:15;;;;;;;;;;;17.80;51.70;;;;;;10080672;28;783;-75
2023/02/24 21:39:13;;;;;;;;;;;17.70;51.60;;;;;;10080651;28;1915;-74
2023/02/24 21:44:08;;;;;;;;;;;17.80;51.70;;;;;;10079635;28;1396;-74
2023/02/24 21:49:04;;;;;;;;;;;17.70;51.50;;;;;;10080329;28;880;-75
2023/02/24 21:54:00;;;;;;;;;;;17.80;51.60;;;;;;10079836;28;905;-75
2023/02/24 21:58:55;;;;;;;;;;;17.70;51.60;;;;;;10079359;28;1910;-74
2023/02/24 22:03:51;;;;;;;;;;;17.70;51.70;;;;;;10079352;28;974;-74
2023/02/24 22:08:46;;;;;;;;;;;17.70;51.70;;;;;;10078734;28;897;-75
2023/02/24 22:13:41;;;;;;;;;;;17.60;51.70;;;;;;10079743;28;883;-75
2023/02/24 22:18:37;;;;;;;;;;;17.60;51.80;;;;;;10079572;28;1973;-75
2023/02/24 22:23:32;;;;;;;;;;;17.60;51.80;;;;;;10078919;28;929;-74
2023/02/24 22:28:28;;;;;;;;;;;17.60;51.70;;;;;;10078750;28;769;-74
2023/02/24 22:33:23;;;;;;;;;;;17.60;51.80;;;;;;10081243;28;837;-74
2023/02/24 22:38:18;;;;;;;;;;;17.60;51.80;;;;;;10085935;28;1963;-74
2023/02/24 22:43:14;;;;;;;;;;;17.60;51.90;;;;;;10085399;28;1257;-74
2023/02/24 22:48:09;;;;;;;;;;;17.50;51.80;;;;;;10085237;28;905;-74
2023/02/24 22:53:04;;;;;;;;;;;17.50;52.30;;;;;;10084994;28;780;-74
2023/02/24 22:58:00;;;;;;;;;;;17.60;51.70;;;;;;10084169;28;1911;-74
2023/02/24 23:02:55;;;;;;;;;;;17.50;51.70;;;;;;10085227;28;794;-74
2023/02/24 23:07:51;;;;;;;;;;;17.50;51.70;;;;;;10084518;28;885;-74
2023/02/24 23:12:47;;;;;;;;;;;17.50;51.60;;;;;;10084292;28;968;-74
2023/02/24 23:17:43;;;;;;;;;;;17.50;51.70;;;;;;10084161;28;1961;-74
2023/02/24 23:22:39;;;;;;;;;;;17.50;51.50;;;;;;10083986;28;890;-74
2023/02/24 23:27:34;;;;;;;;;;;17.60;51.60;;;;;;10083820;28;918;-74
2023/02/24 23:32:29;;;;;;;;;;;17.60;51.60;;;;;;10083243;28;977;-74
2023/02/24 23:37:25;;;;;;;;;;;17.60;51.50;;;;;;10083554;28;1907;-74
2023/02/24 23:42:20;;;;;;;;;;;17.60;51.50;;;;;;10083251;28;1156;-74
2023/02/24 23:47:16;;;;;;;;;;;17.60;51.50;;;;;;10083282;28;854;-74
2023/02/24 23:52:11;;;;;;;;;;;17.60;51.40;;;;;;10083777;28;927;-74
2023/02/24 23:57:06;;;;;;;;;;;17.60;51.30;;;;;;10082968;28;1907;-74
